sensor_id;sensor_type;location;lat;lon;timestamp;temperature;humidity
63313;DHT22;49442;45.640;13.812;2023-11-21T00:00:01;11.70;99.90
63313;DHT22;49442;45.640;13.812;2023-11-21T00:02:27;11.70;99.90
63313;DHT22;49442;45.640;13.812;2023-11-21T00:04:54;11.70;99.90
63313;DHT22;49442;45.640;13.812;2023-11-21T00:07:19;11.70;99.90
63313;DHT22;49442;45.640;13.812;2023-11-21T00:09:46;11.80;99.90
63313;DHT22;49442;45.640;13.812;2023-11-21T00:12:12;11.70;99.90
63313;DHT22;49442;45.640;13.812;2023-11-21T00:14:39;11.70;99.90
63313;DHT22;49442;45.640;13.812;2023-11-21T00:17:05;11.70;99.90
63313;DHT22;49442;45.640;13.812;2023-11-21T00:19:32;11.60;99.90
63313;DHT22;49442;45.640;13.812;2023-11-21T00:21:58;11.60;99.90
63313;DHT22;49442;45.640;13.812;2023-11-21T00:24:24;11.60;99.90
63313;DHT22;49442;45.640;13.812;2023-11-21T00:26:51;11.60;99.90
63313;DHT22;49442;45.640;13.812;2023-11-21T00:29:16;11.60;99.90
63313;DHT22;49442;45.640;13.812;2023-11-21T00:31:44;11.60;99.90
63313;DHT22;49442;45.640;13.812;2023-11-21T00:34:12;11.70;99.90
63313;DHT22;49442;45.640;13.812;2023-11-21T00:36:38;11.80;99.90
63313;DHT22;49442;45.640;13.812;2023-11-21T00:39:04;11.70;99.90
63313;DHT22;49442;45.640;13.812;2023-11-21T00:41:31;11.80;99.90
63313;DHT22;49442;45.640;13.812;2023-11-21T00:43:57;11.70;99.90
63313;DHT22;49442;45.640;13.812;2023-11-21T00:46:23;11.70;99.90
63313;DHT22;49442;45.640;13.812;2023-11-21T00:48:49;11.70;99.90
63313;DHT22;49442;45.640;13.812;2023-11-21T00:51:15;11.80;99.90
63313;DHT22;49442;45.640;13.812;2023-11-21T00:53:41;11.70;99.90
63313;DHT22;49442;45.640;13.812;2023-11-21T00:56:07;11.80;99.90
63313;DHT22;49442;45.640;13.812;2023-11-21T00:58:34;11.70;99.90
63313;DHT22;49442;45.640;13.812;2023-11-21T01:00:59;11.70;99.90
63313;DHT22;49442;45.640;13.812;2023-11-21T01:03:25;11.70;99.90
63313;DHT22;49442;45.640;13.812;2023-11-21T01:05:50;11.70;99.90
63313;DHT22;49442;45.640;13.812;2023-11-21T01:08:16;11.70;99.90
63313;DHT22;49442;45.640;13.812;2023-11-21T01:10:42;11.70;99.90
63313;DHT22;49442;45.640;13.812;2023-11-21T01:13:07;11.70;99.90
63313;DHT22;49442;45.640;13.812;2023-11-21T01:15:36;11.70;99.90
63313;DHT22;49442;45.640;13.812;2023-11-21T01:18:02;11.80;99.90
63313;DHT22;49442;45.640;13.812;2023-11-21T01:20:29;11.70;99.90
63313;DHT22;49442;45.640;13.812;2023-11-21T01:22:54;11.70;99.90
63313;DHT22;49442;45.640;13.812;2023-11-21T01:25:20;11.70;99.90
63313;DHT22;49442;45.640;13.812;2023-11-21T01:27:46;11.80;99.90
63313;DHT22;49442;45.640;13.812;2023-11-21T01:30:13;11.80;99.90
63313;DHT22;49442;45.640;13.812;2023-11-21T01:32:39;11.70;99.90
63313;DHT22;49442;45.640;13.812;2023-11-21T01:35:06;11.70;99.90
63313;DHT22;49442;45.640;13.812;2023-11-21T01:37:32;11.70;99.90
63313;DHT22;49442;45.640;13.812;2023-11-21T01:39:59;11.80;99.90
63313;DHT22;49442;45.640;13.812;2023-11-21T01:42:25;11.70;99.90
63313;DHT22;49442;45.640;13.812;2023-11-21T01:44:52;11.80;99.90
63313;DHT22;49442;45.640;13.812;2023-11-21T01:47:20;11.80;99.90
63313;DHT22;49442;45.640;13.812;2023-11-21T01:49:47;11.80;99.90
63313;DHT22;49442;45.640;13.812;2023-11-21T01:52:13;11.80;99.90
63313;DHT22;49442;45.640;13.812;2023-11-21T01:54:41;11.80;99.90
63313;DHT22;49442;45.640;13.812;2023-11-21T01:57:07;11.70;99.90
63313;DHT22;49442;45.640;13.812;2023-11-21T01:59:37;11.70;99.90
63313;DHT22;49442;45.640;13.812;2023-11-21T02:02:07;11.70;99.90
63313;DHT22;49442;45.640;13.812;2023-11-21T02:04:33;11.70;99.90
63313;DHT22;49442;45.640;13.812;2023-11-21T02:07:00;11.60;99.90
63313;DHT22;49442;45.640;13.812;2023-11-21T02:09:29;11.70;99.90
63313;DHT22;49442;45.640;13.812;2023-11-21T02:11:59;11.70;99.90
63313;DHT22;49442;45.640;13.812;2023-11-21T02:14:26;11.70;99.90
63313;DHT22;49442;45.640;13.812;2023-11-21T02:16:53;11.70;99.90
63313;DHT22;49442;45.640;13.812;2023-11-21T02:19:21;11.70;99.90
63313;DHT22;49442;45.640;13.812;2023-11-21T02:21:54;11.70;99.90
63313;DHT22;49442;45.640;13.812;2023-11-21T02:24:23;11.70;99.90
63313;DHT22;49442;45.640;13.812;2023-11-21T02:26:49;11.70;99.90
63313;DHT22;49442;45.640;13.812;2023-11-21T02:29:18;11.80;99.90
63313;DHT22;49442;45.640;13.812;2023-11-21T02:31:48;11.90;99.90
63313;DHT22;49442;45.640;13.812;2023-11-21T02:34:15;11.90;99.90
63313;DHT22;49442;45.640;13.812;2023-11-21T02:36:41;12.00;99.90
63313;DHT22;49442;45.640;13.812;2023-11-21T02:39:08;12.00;99.90
63313;DHT22;49442;45.640;13.812;2023-11-21T02:41:33;12.10;99.90
63313;DHT22;49442;45.640;13.812;2023-11-21T02:44:00;12.10;99.90
63313;DHT22;49442;45.640;13.812;2023-11-21T02:46:26;12.20;99.90
63313;DHT22;49442;45.640;13.812;2023-11-21T02:48:52;12.20;99.90
63313;DHT22;49442;45.640;13.812;2023-11-21T02:51:19;12.30;99.90
63313;DHT22;49442;45.640;13.812;2023-11-21T02:53:45;12.30;99.90
63313;DHT22;49442;45.640;13.812;2023-11-21T02:56:12;12.30;99.90
63313;DHT22;49442;45.640;13.812;2023-11-21T02:58:41;12.30;99.90
63313;DHT22;49442;45.640;13.812;2023-11-21T03:01:07;12.40;99.90
63313;DHT22;49442;45.640;13.812;2023-11-21T03:03:32;12.40;99.90
63313;DHT22;49442;45.640;13.812;2023-11-21T03:05:58;12.30;99.90
63313;DHT22;49442;45.640;13.812;2023-11-21T03:08:24;12.40;99.90
63313;DHT22;49442;45.640;13.812;2023-11-21T03:10:49;12.40;99.90
63313;DHT22;49442;45.640;13.812;2023-11-21T03:13:15;12.40;99.90
63313;DHT22;49442;45.640;13.812;2023-11-21T03:15:41;12.40;99.90
63313;DHT22;49442;45.640;13.812;2023-11-21T03:18:08;12.40;99.90
63313;DHT22;49442;45.640;13.812;2023-11-21T03:20:33;12.40;99.90
63313;DHT22;49442;45.640;13.812;2023-11-21T03:23:00;12.40;99.90
63313;DHT22;49442;45.640;13.812;2023-11-21T03:25:27;12.50;99.90
63313;DHT22;49442;45.640;13.812;2023-11-21T03:27:53;12.50;99.90
63313;DHT22;49442;45.640;13.812;2023-11-21T03:30:19;12.50;99.90
63313;DHT22;49442;45.640;13.812;2023-11-21T03:32:44;12.50;99.90
63313;DHT22;49442;45.640;13.812;2023-11-21T03:35:10;12.60;99.90
63313;DHT22;49442;45.640;13.812;2023-11-21T03:37:36;12.50;99.90
63313;DHT22;49442;45.640;13.812;2023-11-21T03:40:04;12.60;99.90
63313;DHT22;49442;45.640;13.812;2023-11-21T03:42:30;12.60;99.90
63313;DHT22;49442;45.640;13.812;2023-11-21T03:44:55;12.60;99.90
63313;DHT22;49442;45.640;13.812;2023-11-21T03:47:21;12.60;99.90
63313;DHT22;49442;45.640;13.812;2023-11-21T03:49:47;12.60;99.90
63313;DHT22;49442;45.640;13.812;2023-11-21T03:52:12;12.50;99.90
63313;DHT22;49442;45.640;13.812;2023-11-21T03:54:38;12.50;99.90
63313;DHT22;49442;45.640;13.812;2023-11-21T03:57:04;12.50;99.90
63313;DHT22;49442;45.640;13.812;2023-11-21T03:59:30;12.50;99.90
63313;DHT22;49442;45.640;13.812;2023-11-21T04:01:56;12.40;99.90
63313;DHT22;49442;45.640;13.812;2023-11-21T04:04:22;12.40;99.90
63313;DHT22;49442;45.640;13.812;2023-11-21T04:06:48;12.40;99.90
63313;DHT22;49442;45.640;13.812;2023-11-21T04:09:14;12.30;99.90
63313;DHT22;49442;45.640;13.812;2023-11-21T04:11:39;12.30;99.90
63313;DHT22;49442;45.640;13.812;2023-11-21T04:14:05;12.20;99.90
63313;DHT22;49442;45.640;13.812;2023-11-21T04:16:31;12.20;99.90
63313;DHT22;49442;45.640;13.812;2023-11-21T04:18:56;12.20;99.90
63313;DHT22;49442;45.640;13.812;2023-11-21T04:21:22;12.10;99.90
63313;DHT22;49442;45.640;13.812;2023-11-21T04:23:49;12.10;99.90
63313;DHT22;49442;45.640;13.812;2023-11-21T04:26:15;12.10;99.90
63313;DHT22;49442;45.640;13.812;2023-11-21T04:28:42;12.10;99.90
63313;DHT22;49442;45.640;13.812;2023-11-21T04:31:07;12.10;99.90
63313;DHT22;49442;45.640;13.812;2023-11-21T04:33:33;12.10;99.90
63313;DHT22;49442;45.640;13.812;2023-11-21T04:35:58;12.10;99.90
63313;DHT22;49442;45.640;13.812;2023-11-21T04:38:24;12.10;99.90
63313;DHT22;49442;45.640;13.812;2023-11-21T04:40:50;12.00;99.90
63313;DHT22;49442;45.640;13.812;2023-11-21T04:43:16;12.00;99.90
63313;DHT22;49442;45.640;13.812;2023-11-21T04:45:41;12.00;99.90
63313;DHT22;49442;45.640;13.812;2023-11-21T04:48:08;12.00;99.90
63313;DHT22;49442;45.640;13.812;2023-11-21T04:50:34;12.00;99.90
63313;DHT22;49442;45.640;13.812;2023-11-21T04:53:00;12.00;99.90
63313;DHT22;49442;45.640;13.812;2023-11-21T04:55:25;12.00;99.90
63313;DHT22;49442;45.640;13.812;2023-11-21T04:57:53;12.10;99.90
63313;DHT22;49442;45.640;13.812;2023-11-21T05:00:19;12.30;99.90
63313;DHT22;49442;45.640;13.812;2023-11-21T05:02:46;12.40;99.90
63313;DHT22;49442;45.640;13.812;2023-11-21T05:05:12;12.50;99.90
63313;DHT22;49442;45.640;13.812;2023-11-21T05:07:39;12.60;99.90
63313;DHT22;49442;45.640;13.812;2023-11-21T05:10:06;12.70;99.90
63313;DHT22;49442;45.640;13.812;2023-11-21T05:12:35;12.70;99.90
63313;DHT22;49442;45.640;13.812;2023-11-21T05:15:07;12.80;99.90
63313;DHT22;49442;45.640;13.812;2023-11-21T05:17:37;12.80;99.90
63313;DHT22;49442;45.640;13.812;2023-11-21T05:20:05;12.90;99.90
63313;DHT22;49442;45.640;13.812;2023-11-21T05:22:34;12.90;99.90
63313;DHT22;49442;45.640;13.812;2023-11-21T05:25:00;12.90;99.90
63313;DHT22;49442;45.640;13.812;2023-11-21T05:27:26;12.90;99.90
63313;DHT22;49442;45.640;13.812;2023-11-21T05:29:52;13.00;99.90
63313;DHT22;49442;45.640;13.812;2023-11-21T05:32:17;13.00;99.90
63313;DHT22;49442;45.640;13.812;2023-11-21T05:34:43;12.90;99.90
63313;DHT22;49442;45.640;13.812;2023-11-21T05:37:09;12.90;99.90
63313;DHT22;49442;45.640;13.812;2023-11-21T05:39:34;12.90;99.90
63313;DHT22;49442;45.640;13.812;2023-11-21T05:42:01;12.90;99.90
63313;DHT22;49442;45.640;13.812;2023-11-21T05:44:27;12.90;99.90
63313;DHT22;49442;45.640;13.812;2023-11-21T05:46:52;12.80;99.90
63313;DHT22;49442;45.640;13.812;2023-11-21T05:49:18;12.80;99.90
63313;DHT22;49442;45.640;13.812;2023-11-21T05:51:47;12.80;99.90
63313;DHT22;49442;45.640;13.812;2023-11-21T05:54:13;12.80;99.90
63313;DHT22;49442;45.640;13.812;2023-11-21T05:56:38;12.80;99.90
63313;DHT22;49442;45.640;13.812;2023-11-21T05:59:04;12.70;99.90
63313;DHT22;49442;45.640;13.812;2023-11-21T06:01:30;12.70;99.90
63313;DHT22;49442;45.640;13.812;2023-11-21T06:03:55;12.70;99.90
63313;DHT22;49442;45.640;13.812;2023-11-21T06:06:21;12.70;99.90
63313;DHT22;49442;45.640;13.812;2023-11-21T06:08:51;12.70;99.90
63313;DHT22;49442;45.640;13.812;2023-11-21T06:11:17;12.70;99.90
63313;DHT22;49442;45.640;13.812;2023-11-21T06:13:43;12.70;99.90
63313;DHT22;49442;45.640;13.812;2023-11-21T06:16:09;12.60;99.90
63313;DHT22;49442;45.640;13.812;2023-11-21T06:18:35;12.60;99.90
63313;DHT22;49442;45.640;13.812;2023-11-21T06:21:01;12.60;99.90
63313;DHT22;49442;45.640;13.812;2023-11-21T06:23:26;12.60;99.90
63313;DHT22;49442;45.640;13.812;2023-11-21T06:25:52;12.60;99.90
63313;DHT22;49442;45.640;13.812;2023-11-21T06:28:18;12.60;99.90
63313;DHT22;49442;45.640;13.812;2023-11-21T06:30:44;12.60;99.90
63313;DHT22;49442;45.640;13.812;2023-11-21T06:33:14;12.70;99.90
63313;DHT22;49442;45.640;13.812;2023-11-21T06:35:40;12.60;99.90
63313;DHT22;49442;45.640;13.812;2023-11-21T06:38:05;12.60;99.90
63313;DHT22;49442;45.640;13.812;2023-11-21T06:40:31;12.60;99.90
63313;DHT22;49442;45.640;13.812;2023-11-21T06:42:59;12.60;99.90
63313;DHT22;49442;45.640;13.812;2023-11-21T06:45:24;12.60;99.90
63313;DHT22;49442;45.640;13.812;2023-11-21T06:47:50;12.70;99.90
63313;DHT22;49442;45.640;13.812;2023-11-21T06:50:16;12.70;99.90
63313;DHT22;49442;45.640;13.812;2023-11-21T06:52:42;12.70;99.90
63313;DHT22;49442;45.640;13.812;2023-11-21T06:55:08;12.70;99.90
63313;DHT22;49442;45.640;13.812;2023-11-21T06:57:35;12.70;99.90
63313;DHT22;49442;45.640;13.812;2023-11-21T07:00:01;12.70;99.90
63313;DHT22;49442;45.640;13.812;2023-11-21T07:02:27;12.70;99.90
63313;DHT22;49442;45.640;13.812;2023-11-21T07:04:53;12.70;99.90
63313;DHT22;49442;45.640;13.812;2023-11-21T07:07:19;12.70;99.90
63313;DHT22;49442;45.640;13.812;2023-11-21T07:09:45;12.70;99.90
63313;DHT22;49442;45.640;13.812;2023-11-21T07:12:10;12.60;99.90
63313;DHT22;49442;45.640;13.812;2023-11-21T07:14:36;12.70;99.90
63313;DHT22;49442;45.640;13.812;2023-11-21T07:17:04;12.70;99.90
63313;DHT22;49442;45.640;13.812;2023-11-21T07:19:30;12.70;99.90
63313;DHT22;49442;45.640;13.812;2023-11-21T07:21:56;12.60;99.90
63313;DHT22;49442;45.640;13.812;2023-11-21T07:24:22;12.70;99.90
63313;DHT22;49442;45.640;13.812;2023-11-21T07:26:48;12.70;99.90
63313;DHT22;49442;45.640;13.812;2023-11-21T07:29:14;12.60;99.90
63313;DHT22;49442;45.640;13.812;2023-11-21T07:31:40;12.60;99.90
63313;DHT22;49442;45.640;13.812;2023-11-21T07:34:06;12.60;99.90
63313;DHT22;49442;45.640;13.812;2023-11-21T07:36:47;12.70;99.90
63313;DHT22;49442;45.640;13.812;2023-11-21T07:39:13;12.70;99.90
63313;DHT22;49442;45.640;13.812;2023-11-21T07:41:41;12.70;99.90
63313;DHT22;49442;45.640;13.812;2023-11-21T07:44:14;12.70;99.90
63313;DHT22;49442;45.640;13.812;2023-11-21T07:46:40;12.70;99.90
63313;DHT22;49442;45.640;13.812;2023-11-21T07:49:06;12.70;99.90
63313;DHT22;49442;45.640;13.812;2023-11-21T07:51:31;12.70;99.90
63313;DHT22;49442;45.640;13.812;2023-11-21T07:53:57;12.70;99.90
63313;DHT22;49442;45.640;13.812;2023-11-21T07:56:22;12.70;99.90
63313;DHT22;49442;45.640;13.812;2023-11-21T07:58:48;12.70;99.90
63313;DHT22;49442;45.640;13.812;2023-11-21T08:01:15;12.70;99.90
63313;DHT22;49442;45.640;13.812;2023-11-21T08:03:41;12.70;99.90
63313;DHT22;49442;45.640;13.812;2023-11-21T08:06:07;12.80;99.90
63313;DHT22;49442;45.640;13.812;2023-11-21T08:08:33;12.90;99.90
63313;DHT22;49442;45.640;13.812;2023-11-21T08:10:58;12.90;99.90
63313;DHT22;49442;45.640;13.812;2023-11-21T08:13:27;12.90;99.90
63313;DHT22;49442;45.640;13.812;2023-11-21T08:15:57;13.00;99.90
63313;DHT22;49442;45.640;13.812;2023-11-21T08:18:31;13.00;99.90
63313;DHT22;49442;45.640;13.812;2023-11-21T08:20:57;13.00;99.90
63313;DHT22;49442;45.640;13.812;2023-11-21T08:23:22;13.00;99.90
63313;DHT22;49442;45.640;13.812;2023-11-21T08:25:54;13.00;99.90
63313;DHT22;49442;45.640;13.812;2023-11-21T08:28:20;13.00;99.90
63313;DHT22;49442;45.640;13.812;2023-11-21T08:30:47;13.00;99.90
63313;DHT22;49442;45.640;13.812;2023-11-21T08:33:13;13.10;99.90
63313;DHT22;49442;45.640;13.812;2023-11-21T08:35:39;13.10;99.90
63313;DHT22;49442;45.640;13.812;2023-11-21T08:38:05;13.10;99.90
63313;DHT22;49442;45.640;13.812;2023-11-21T08:40:31;13.10;99.90
63313;DHT22;49442;45.640;13.812;2023-11-21T08:42:57;13.10;99.90
63313;DHT22;49442;45.640;13.812;2023-11-21T08:45:24;13.10;99.90
63313;DHT22;49442;45.640;13.812;2023-11-21T08:47:51;13.10;99.90
63313;DHT22;49442;45.640;13.812;2023-11-21T08:50:17;13.10;99.90
63313;DHT22;49442;45.640;13.812;2023-11-21T08:52:44;13.10;99.90
63313;DHT22;49442;45.640;13.812;2023-11-21T08:55:11;13.00;99.90
63313;DHT22;49442;45.640;13.812;2023-11-21T08:57:38;13.00;99.90
63313;DHT22;49442;45.640;13.812;2023-11-21T09:00:07;13.00;99.90
63313;DHT22;49442;45.640;13.812;2023-11-21T09:02:40;13.00;99.90
63313;DHT22;49442;45.640;13.812;2023-11-21T09:05:09;12.90;99.90
63313;DHT22;49442;45.640;13.812;2023-11-21T09:07:35;12.90;99.90
63313;DHT22;49442;45.640;13.812;2023-11-21T09:10:03;12.90;99.90
63313;DHT22;49442;45.640;13.812;2023-11-21T09:12:29;12.90;99.90
63313;DHT22;49442;45.640;13.812;2023-11-21T09:14:54;12.90;99.90
63313;DHT22;49442;45.640;13.812;2023-11-21T09:17:20;12.90;99.90
63313;DHT22;49442;45.640;13.812;2023-11-21T09:19:46;12.80;99.90
63313;DHT22;49442;45.640;13.812;2023-11-21T09:22:17;12.90;99.90
63313;DHT22;49442;45.640;13.812;2023-11-21T09:24:42;12.90;99.90
63313;DHT22;49442;45.640;13.812;2023-11-21T09:27:09;12.90;99.90
63313;DHT22;49442;45.640;13.812;2023-11-21T09:29:35;12.90;99.90
63313;DHT22;49442;45.640;13.812;2023-11-21T09:32:02;12.90;99.90
63313;DHT22;49442;45.640;13.812;2023-11-21T09:34:28;13.00;99.90
63313;DHT22;49442;45.640;13.812;2023-11-21T09:36:54;13.00;99.90
63313;DHT22;49442;45.640;13.812;2023-11-21T09:39:20;13.00;99.90
63313;DHT22;49442;45.640;13.812;2023-11-21T09:42:30;13.00;99.90
63313;DHT22;49442;45.640;13.812;2023-11-21T09:45:15;13.10;99.90
63313;DHT22;49442;45.640;13.812;2023-11-21T09:47:43;13.10;99.90
63313;DHT22;49442;45.640;13.812;2023-11-21T09:50:09;13.10;99.90
63313;DHT22;49442;45.640;13.812;2023-11-21T09:55:18;13.10;99.90
63313;DHT22;49442;45.640;13.812;2023-11-21T09:57:47;13.00;99.90
63313;DHT22;49442;45.640;13.812;2023-11-21T10:00:15;13.00;99.90
63313;DHT22;49442;45.640;13.812;2023-11-21T10:02:43;13.00;99.90
63313;DHT22;49442;45.640;13.812;2023-11-21T10:05:09;13.00;99.90
63313;DHT22;49442;45.640;13.812;2023-11-21T10:07:35;12.90;99.90
63313;DHT22;49442;45.640;13.812;2023-11-21T10:10:01;12.90;99.90
63313;DHT22;49442;45.640;13.812;2023-11-21T10:12:28;12.90;99.90
63313;DHT22;49442;45.640;13.812;2023-11-21T10:14:57;12.90;99.90
63313;DHT22;49442;45.640;13.812;2023-11-21T10:17:24;12.80;99.90
63313;DHT22;49442;45.640;13.812;2023-11-21T10:19:55;12.90;99.90
63313;DHT22;49442;45.640;13.812;2023-11-21T10:22:22;12.90;99.90
63313;DHT22;49442;45.640;13.812;2023-11-21T10:24:47;12.90;99.90
63313;DHT22;49442;45.640;13.812;2023-11-21T10:27:13;12.90;99.90
63313;DHT22;49442;45.640;13.812;2023-11-21T10:29:39;12.90;99.90
63313;DHT22;49442;45.640;13.812;2023-11-21T10:32:07;12.90;99.90
63313;DHT22;49442;45.640;13.812;2023-11-21T10:34:33;12.90;99.90
63313;DHT22;49442;45.640;13.812;2023-11-21T10:37:11;12.80;99.90
63313;DHT22;49442;45.640;13.812;2023-11-21T10:39:39;12.80;99.90
63313;DHT22;49442;45.640;13.812;2023-11-21T10:42:08;12.80;99.90
63313;DHT22;49442;45.640;13.812;2023-11-21T10:44:34;12.70;99.90
63313;DHT22;49442;45.640;13.812;2023-11-21T10:47:00;12.70;99.90
63313;DHT22;49442;45.640;13.812;2023-11-21T10:49:26;12.70;99.90
63313;DHT22;49442;45.640;13.812;2023-11-21T10:51:54;12.60;99.90
63313;DHT22;49442;45.640;13.812;2023-11-21T10:54:20;12.60;99.90
63313;DHT22;49442;45.640;13.812;2023-11-21T10:56:49;12.60;99.90
63313;DHT22;49442;45.640;13.812;2023-11-21T10:59:16;12.60;99.90
63313;DHT22;49442;45.640;13.812;2023-11-21T11:01:45;12.60;99.90
63313;DHT22;49442;45.640;13.812;2023-11-21T11:04:12;12.60;99.90
63313;DHT22;49442;45.640;13.812;2023-11-21T11:07:01;12.60;99.90
63313;DHT22;49442;45.640;13.812;2023-11-21T11:09:28;12.60;99.90
63313;DHT22;49442;45.640;13.812;2023-11-21T11:11:56;12.60;99.90
63313;DHT22;49442;45.640;13.812;2023-11-21T11:14:22;12.60;99.90
63313;DHT22;49442;45.640;13.812;2023-11-21T11:16:53;12.60;99.90
63313;DHT22;49442;45.640;13.812;2023-11-21T11:19:19;12.60;99.90
63313;DHT22;49442;45.640;13.812;2023-11-21T11:24:40;12.60;99.90
63313;DHT22;49442;45.640;13.812;2023-11-21T11:27:36;12.60;99.90
63313;DHT22;49442;45.640;13.812;2023-11-21T11:35:32;12.60;99.90
63313;DHT22;49442;45.640;13.812;2023-11-21T11:37:59;12.60;99.90
63313;DHT22;49442;45.640;13.812;2023-11-21T11:40:39;12.60;99.90
63313;DHT22;49442;45.640;13.812;2023-11-21T11:43:06;12.60;99.90
63313;DHT22;49442;45.640;13.812;2023-11-21T11:45:33;12.60;99.90
63313;DHT22;49442;45.640;13.812;2023-11-21T11:48:03;12.60;99.90
63313;DHT22;49442;45.640;13.812;2023-11-21T11:50:29;12.60;99.90
63313;DHT22;49442;45.640;13.812;2023-11-21T11:53:11;12.60;99.90
63313;DHT22;49442;45.640;13.812;2023-11-21T11:55:38;12.60;99.90
63313;DHT22;49442;45.640;13.812;2023-11-21T11:58:06;12.50;99.90
63313;DHT22;49442;45.640;13.812;2023-11-21T12:03:00;12.50;99.90
63313;DHT22;49442;45.640;13.812;2023-11-21T12:05:29;12.50;99.90
63313;DHT22;49442;45.640;13.812;2023-11-21T12:08:03;12.50;99.90
63313;DHT22;49442;45.640;13.812;2023-11-21T12:10:33;12.50;99.90
63313;DHT22;49442;45.640;13.812;2023-11-21T12:13:10;12.50;99.90
63313;DHT22;49442;45.640;13.812;2023-11-21T12:15:37;12.40;99.90
63313;DHT22;49442;45.640;13.812;2023-11-21T12:18:04;12.40;99.90
63313;DHT22;49442;45.640;13.812;2023-11-21T12:20:30;12.40;99.90
63313;DHT22;49442;45.640;13.812;2023-11-21T12:22:59;12.40;99.90
63313;DHT22;49442;45.640;13.812;2023-11-21T12:25:27;12.40;99.90
63313;DHT22;49442;45.640;13.812;2023-11-21T12:27:58;12.30;99.90
63313;DHT22;49442;45.640;13.812;2023-11-21T12:30:26;12.30;99.90
63313;DHT22;49442;45.640;13.812;2023-11-21T12:32:56;12.30;99.90
63313;DHT22;49442;45.640;13.812;2023-11-21T12:35:25;12.30;99.90
63313;DHT22;49442;45.640;13.812;2023-11-21T12:37:52;12.30;99.90
63313;DHT22;49442;45.640;13.812;2023-11-21T12:40:18;12.30;99.90
63313;DHT22;49442;45.640;13.812;2023-11-21T12:42:48;12.30;99.90
63313;DHT22;49442;45.640;13.812;2023-11-21T12:47:55;12.30;99.90
63313;DHT22;49442;45.640;13.812;2023-11-21T12:50:23;12.30;99.90
63313;DHT22;49442;45.640;13.812;2023-11-21T12:52:51;12.30;99.90
63313;DHT22;49442;45.640;13.812;2023-11-21T12:55:19;12.30;99.90
63313;DHT22;49442;45.640;13.812;2023-11-21T12:57:55;12.30;99.90
63313;DHT22;49442;45.640;13.812;2023-11-21T13:00:45;12.30;99.90
63313;DHT22;49442;45.640;13.812;2023-11-21T13:03:13;12.30;99.90
63313;DHT22;49442;45.640;13.812;2023-11-21T13:05:43;12.40;99.90
63313;DHT22;49442;45.640;13.812;2023-11-21T13:08:16;12.40;99.90
63313;DHT22;49442;45.640;13.812;2023-11-21T13:10:46;12.30;99.90
63313;DHT22;49442;45.640;13.812;2023-11-21T13:13:14;12.30;99.90
63313;DHT22;49442;45.640;13.812;2023-11-21T13:18:24;12.30;99.90
63313;DHT22;49442;45.640;13.812;2023-11-21T13:20:56;12.20;99.90
63313;DHT22;49442;45.640;13.812;2023-11-21T13:23:23;12.30;99.90
63313;DHT22;49442;45.640;13.812;2023-11-21T13:25:49;12.20;99.90
63313;DHT22;49442;45.640;13.812;2023-11-21T13:28:15;12.20;99.90
63313;DHT22;49442;45.640;13.812;2023-11-21T13:30:43;12.20;99.90
63313;DHT22;49442;45.640;13.812;2023-11-21T13:33:10;12.20;99.90
63313;DHT22;49442;45.640;13.812;2023-11-21T13:35:43;12.20;99.90
63313;DHT22;49442;45.640;13.812;2023-11-21T13:38:14;12.20;99.90
63313;DHT22;49442;45.640;13.812;2023-11-21T13:40:48;12.20;99.90
63313;DHT22;49442;45.640;13.812;2023-11-21T13:43:18;12.20;99.90
63313;DHT22;49442;45.640;13.812;2023-11-21T13:45:46;12.20;99.90
63313;DHT22;49442;45.640;13.812;2023-11-21T13:48:13;12.10;99.90
63313;DHT22;49442;45.640;13.812;2023-11-21T13:50:40;12.10;99.90
63313;DHT22;49442;45.640;13.812;2023-11-21T13:53:14;12.10;99.90
63313;DHT22;49442;45.640;13.812;2023-11-21T13:55:51;12.10;99.90
63313;DHT22;49442;45.640;13.812;2023-11-21T13:58:21;12.10;99.90
63313;DHT22;49442;45.640;13.812;2023-11-21T14:01:10;12.10;99.90
63313;DHT22;49442;45.640;13.812;2023-11-21T14:03:50;12.00;99.90
63313;DHT22;49442;45.640;13.812;2023-11-21T14:06:22;12.00;99.90
63313;DHT22;49442;45.640;13.812;2023-11-21T14:08:53;12.00;99.90
63313;DHT22;49442;45.640;13.812;2023-11-21T14:11:22;12.00;99.90
63313;DHT22;49442;45.640;13.812;2023-11-21T14:13:48;12.00;99.90
63313;DHT22;49442;45.640;13.812;2023-11-21T14:16:15;12.10;99.90
63313;DHT22;49442;45.640;13.812;2023-11-21T14:18:42;12.00;99.90
63313;DHT22;49442;45.640;13.812;2023-11-21T14:21:19;12.00;99.90
63313;DHT22;49442;45.640;13.812;2023-11-21T14:23:44;12.00;99.90
63313;DHT22;49442;45.640;13.812;2023-11-21T14:26:11;12.00;99.90
63313;DHT22;49442;45.640;13.812;2023-11-21T14:28:40;12.00;99.90
63313;DHT22;49442;45.640;13.812;2023-11-21T14:31:07;11.90;99.90
63313;DHT22;49442;45.640;13.812;2023-11-21T14:33:33;12.00;99.90
63313;DHT22;49442;45.640;13.812;2023-11-21T14:35:59;11.90;99.90
63313;DHT22;49442;45.640;13.812;2023-11-21T14:38:24;11.90;99.90
63313;DHT22;49442;45.640;13.812;2023-11-21T14:40:50;11.90;99.90
63313;DHT22;49442;45.640;13.812;2023-11-21T14:43:16;12.00;99.90
63313;DHT22;49442;45.640;13.812;2023-11-21T14:45:44;11.90;99.90
63313;DHT22;49442;45.640;13.812;2023-11-21T14:48:10;12.00;99.90
63313;DHT22;49442;45.640;13.812;2023-11-21T14:50:41;12.00;99.90
63313;DHT22;49442;45.640;13.812;2023-11-21T14:53:11;11.90;99.90
63313;DHT22;49442;45.640;13.812;2023-11-21T14:55:38;11.90;99.90
63313;DHT22;49442;45.640;13.812;2023-11-21T14:58:18;11.80;99.90
63313;DHT22;49442;45.640;13.812;2023-11-21T15:00:57;11.80;99.90
63313;DHT22;49442;45.640;13.812;2023-11-21T15:03:27;11.80;99.90
63313;DHT22;49442;45.640;13.812;2023-11-21T15:05:59;11.80;99.90
63313;DHT22;49442;45.640;13.812;2023-11-21T15:08:37;11.80;99.90
63313;DHT22;49442;45.640;13.812;2023-11-21T15:11:03;11.80;99.90
63313;DHT22;49442;45.640;13.812;2023-11-21T15:13:32;11.80;99.90
63313;DHT22;49442;45.640;13.812;2023-11-21T15:15:59;11.80;99.90
63313;DHT22;49442;45.640;13.812;2023-11-21T15:18:33;11.80;99.90
63313;DHT22;49442;45.640;13.812;2023-11-21T15:20:59;11.80;99.90
63313;DHT22;49442;45.640;13.812;2023-11-21T15:23:25;11.80;99.90
63313;DHT22;49442;45.640;13.812;2023-11-21T15:25:53;11.70;99.90
63313;DHT22;49442;45.640;13.812;2023-11-21T15:28:19;11.80;99.90
63313;DHT22;49442;45.640;13.812;2023-11-21T15:30:45;11.80;99.90
63313;DHT22;49442;45.640;13.812;2023-11-21T15:33:13;11.80;99.90
63313;DHT22;49442;45.640;13.812;2023-11-21T15:35:39;11.80;99.90